Time;durP1;ratioP1;P1;durP2;ratioP2;P2;SDS_P1;SDS_P2;PMS_P1;PMS_P2;Temp;Humidity;BMP_temperature;BMP_pressure;BME280_temperature;BME280_humidity;BME280_pressure;Samples;Min_cycle;Max_cycle;Signal;HPM_P1;HPM_P2
2023/06/21 00:00:57;;;;;;;0.65;0.65;;;19.50;99.90;;;;;;5073368;28;20128;-69
2023/06/21 00:03:24;;;;;;;0.90;0.90;;;19.50;99.90;;;;;;5070242;28;20033;-70
2023/06/21 00:05:50;;;;;;;1.50;1.40;;;19.50;99.90;;;;;;5071608;28;20532;-69
2023/06/21 00:08:16;;;;;;;0.93;0.93;;;19.50;99.90;;;;;;5074080;28;20048;-70
2023/06/21 00:10:41;;;;;;;2.22;2.08;;;19.80;99.90;;;;;;5069676;28;20422;-69
2023/06/21 00:13:08;;;;;;;1.48;1.42;;;19.50;99.90;;;;;;5072585;28;20044;-70
2023/06/21 00:15:34;;;;;;;2.13;2.03;;;19.50;99.90;;;;;;5071658;28;20070;-70
2023/06/21 00:17:59;;;;;;;0.75;0.75;;;19.40;99.90;;;;;;5068340;28;20044;-69
2023/06/21 00:20:25;;;;;;;0.40;0.40;;;19.70;99.90;;;;;;5055862;28;20079;-69
2023/06/21 00:22:55;;;;;;;0.93;0.93;;;19.60;99.90;;;;;;5072234;28;20607;-69
2023/06/21 00:25:22;;;;;;;0.65;0.65;;;19.40;99.90;;;;;;5073492;28;20120;-69
2023/06/21 00:27:47;;;;;;;0.55;0.55;;;19.40;99.90;;;;;;5074526;28;20406;-69
2023/06/21 00:30:13;;;;;;;1.20;1.17;;;19.70;99.90;;;;;;5073343;28;20044;-69
2023/06/21 00:32:39;;;;;;;0.57;0.57;;;19.50;99.90;;;;;;5074613;28;20132;-69
2023/06/21 00:35:06;;;;;;;0.38;0.38;;;19.40;99.90;;;;;;5071452;28;20079;-69
2023/06/21 00:37:31;;;;;;;1.38;0.80;;;19.40;99.90;;;;;;5071508;28;20076;-69
2023/06/21 00:39:57;;;;;;;1.02;1.02;;;19.70;99.90;;;;;;5068114;28;20072;-69
2023/06/21 00:42:23;;;;;;;1.10;1.10;;;19.40;99.90;;;;;;5061506;28;20095;-69
2023/06/21 00:44:49;;;;;;;0.40;0.40;;;19.60;99.90;;;;;;5065642;28;20815;-69
2023/06/21 00:47:14;;;;;;;0.82;0.82;;;19.40;99.90;;;;;;5070068;28;20036;-69
2023/06/21 00:49:40;;;;;;;1.15;1.05;;;19.40;99.90;;;;;;5067750;28;20041;-69
2023/06/21 00:52:06;;;;;;;0.40;0.40;;;19.30;99.90;;;;;;5077445;28;20660;-69
2023/06/21 00:54:35;;;;;;;1.38;1.27;;;19.60;99.90;;;;;;5066784;28;20040;-69
2023/06/21 00:57:02;;;;;;;1.85;1.00;;;19.60;99.90;;;;;;5063862;28;20497;-69
2023/06/21 00:59:28;;;;;;;2.70;1.47;;;19.60;99.90;;;;;;5067202;28;20040;-69
2023/06/21 01:01:57;;;;;;;0.50;0.50;;;19.40;99.90;;;;;;5073696;28;20164;-70
2023/06/21 01:04:31;;;;;;;0.65;0.65;;;19.30;99.90;;;;;;5066949;28;20523;-69
2023/06/21 01:07:35;;;;;;;0.40;0.40;;;19.60;99.90;;;;;;5076320;28;20135;-70
2023/06/21 01:10:41;;;;;;;0.50;0.45;;;19.40;99.90;;;;;;5064416;28;20775;-69
2023/06/21 01:13:21;;;;;;;0.35;0.35;;;19.50;99.90;;;;;;5047654;28;20080;-70
2023/06/21 01:15:52;;;;;;;0.82;0.82;;;19.50;99.90;;;;;;5067003;28;20533;-69
2023/06/21 01:18:20;;;;;;;1.35;1.25;;;19.20;99.90;;;;;;5064774;28;20115;-69
2023/06/21 01:20:53;;;;;;;1.67;1.65;;;19.50;99.90;;;;;;5074989;28;20048;-69
2023/06/21 01:23:51;;;;;;;0.90;0.90;;;19.20;99.90;;;;;;5064186;28;20040;-69
2023/06/21 01:26:41;;;;;;;2.10;2.00;;;19.20;99.90;;;;;;5070186;28;20044;-70
2023/06/21 01:29:16;;;;;;;0.40;0.40;;;19.20;99.90;;;;;;5067964;28;20048;-69
2023/06/21 01:31:43;;;;;;;0.63;0.63;;;19.30;99.90;;;;;;5063254;28;20044;-69
2023/06/21 01:34:12;;;;;;;0.30;0.30;;;19.30;99.90;;;;;;5068166;28;20860;-69
2023/06/21 01:36:39;;;;;;;0.82;0.82;;;19.20;99.90;;;;;;5066636;28;20073;-69
2023/06/21 01:39:08;;;;;;;1.60;1.15;;;19.00;99.90;;;;;;5051368;28;20053;-69
2023/06/21 01:41:35;;;;;;;0.30;0.30;;;19.00;99.90;;;;;;5064804;28;20500;-69
2023/06/21 01:44:03;;;;;;;0.80;0.80;;;19.20;99.90;;;;;;5059369;28;20040;-69
2023/06/21 01:46:29;;;;;;;0.50;0.50;;;19.10;99.90;;;;;;5076248;28;20485;-69
2023/06/21 01:48:55;;;;;;;0.85;0.80;;;19.00;99.90;;;;;;5074106;28;20051;-69
2023/06/21 01:51:23;;;;;;;0.63;0.63;;;19.00;99.90;;;;;;5057639;28;20040;-70
2023/06/21 01:53:48;;;;;;;0.88;0.88;;;19.00;99.90;;;;;;5071283;28;20846;-69
2023/06/21 01:56:16;;;;;;;0.52;0.52;;;19.10;99.90;;;;;;5064799;28;20045;-69
2023/06/21 01:58:42;;;;;;;0.77;0.77;;;18.80;99.90;;;;;;5062571;28;20044;-69
2023/06/21 02:01:10;;;;;;;0.70;0.70;;;18.80;99.90;;;;;;5058849;28;20053;-70
2023/06/21 02:03:39;;;;;;;;;;;19.10;99.90;;;;;;5059336;28;20530;-69
2023/06/21 02:06:06;;;;;;;0.95;0.95;;;19.00;99.90;;;;;;5051362;28;19921;-69
2023/06/21 02:08:33;;;;;;;1.75;1.50;;;18.70;99.90;;;;;;5053477;28;20143;-70
2023/06/21 02:11:02;;;;;;;2.13;1.33;;;18.80;99.90;;;;;;5052588;28;20402;-69
2023/06/21 02:13:29;;;;;;;2.58;1.42;;;19.00;99.90;;;;;;5052375;28;20044;-69
2023/06/21 02:15:55;;;;;;;0.88;0.55;;;18.80;99.90;;;;;;5064421;28;20048;-69
2023/06/21 02:18:24;;;;;;;2.40;0.85;;;18.80;99.90;;;;;;5061161;28;20044;-69
2023/06/21 02:20:50;;;;;;;1.05;1.05;;;18.90;99.90;;;;;;5064404;28;20071;-69
2023/06/21 02:23:16;;;;;;;1.08;1.00;;;19.00;99.90;;;;;;5073739;28;20079;-69
2023/06/21 02:25:42;;;;;;;2.15;2.05;;;18.90;99.90;;;;;;5075040;28;20508;-69
2023/06/21 02:28:07;;;;;;;1.23;1.20;;;19.00;99.90;;;;;;5061679;28;20033;-69
2023/06/21 02:30:33;;;;;;;1.38;1.27;;;18.90;99.90;;;;;;5058313;28;20592;-69
2023/06/21 02:32:59;;;;;;;2.50;2.38;;;18.70;99.90;;;;;;5055364;28;20171;-70
2023/06/21 02:35:25;;;;;;;0.70;0.70;;;18.60;99.90;;;;;;5060132;28;20175;-69
2023/06/21 02:37:51;;;;;;;1.65;1.63;;;18.90;99.90;;;;;;5062064;28;20047;-70
2023/06/21 02:40:17;;;;;;;1.83;1.23;;;18.60;99.90;;;;;;5047005;28;20037;-69
2023/06/21 02:42:42;;;;;;;1.58;1.48;;;18.80;99.90;;;;;;5061140;28;20059;-69
2023/06/21 02:45:11;;;;;;;1.38;1.38;;;18.50;99.90;;;;;;5066376;28;20048;-70
2023/06/21 02:47:37;;;;;;;2.95;2.33;;;18.90;99.90;;;;;;5074622;28;20461;-69
2023/06/21 02:50:04;;;;;;;1.42;1.40;;;18.80;99.90;;;;;;5081033;28;20037;-69
2023/06/21 02:52:30;;;;;;;0.60;0.60;;;18.90;99.90;;;;;;5059632;28;20056;-69
2023/06/21 02:54:57;;;;;;;2.92;1.58;;;18.50;99.90;;;;;;5072324;28;20040;-69
2023/06/21 02:57:23;;;;;;;3.30;1.55;;;18.70;99.90;;;;;;5064993;28;20146;-69
2023/06/21 02:59:49;;;;;;;1.92;1.77;;;18.70;99.90;;;;;;5054805;28;20155;-69
2023/06/21 03:02:16;;;;;;;1.48;1.38;;;18.50;99.90;;;;;;5068470;28;20517;-69
2023/06/21 03:04:42;;;;;;;1.30;1.20;;;18.50;99.90;;;;;;5059974;28;20053;-69
2023/06/21 03:07:08;;;;;;;2.90;2.55;;;18.60;99.90;;;;;;5058975;28;20060;-69
2023/06/21 03:09:34;;;;;;;2.90;2.40;;;18.50;99.90;;;;;;5068106;28;20493;-70
2023/06/21 03:12:07;;;;;;;1.63;1.52;;;18.60;99.90;;;;;;5071319;28;20040;-69
2023/06/21 03:14:37;;;;;;;1.98;1.70;;;18.50;99.90;;;;;;5059628;28;20171;-70
2023/06/21 03:17:04;;;;;;;1.92;1.80;;;18.60;99.90;;;;;;5057323;28;20049;-69
2023/06/21 03:19:30;;;;;;;3.05;2.80;;;19.00;99.90;;;;;;5062717;28;20036;-70
2023/06/21 03:21:55;;;;;;;1.58;1.35;;;18.60;99.90;;;;;;5061704;28;20052;-69
2023/06/21 03:24:21;;;;;;;3.38;1.92;;;18.60;99.90;;;;;;5063664;28;20386;-69
2023/06/21 03:26:47;;;;;;;2.20;1.58;;;18.40;99.90;;;;;;5068033;28;20133;-69
2023/06/21 03:29:12;;;;;;;2.85;2.65;;;18.50;99.90;;;;;;5073004;28;20045;-69
2023/06/21 03:31:38;;;;;;;2.60;2.25;;;18.60;99.90;;;;;;5067838;28;20037;-69
2023/06/21 03:34:09;;;;;;;1.55;1.13;;;18.60;99.90;;;;;;5070632;28;20048;-69
2023/06/21 03:36:36;;;;;;;2.15;1.95;;;18.70;99.90;;;;;;5068322;28;20529;-69
2023/06/21 03:39:02;;;;;;;1.58;1.48;;;18.90;99.90;;;;;;5064073;28;20512;-70
2023/06/21 03:41:27;;;;;;;1.45;1.40;;;18.50;99.90;;;;;;5075930;28;20052;-69
2023/06/21 03:43:53;;;;;;;5.18;2.47;;;18.70;99.90;;;;;;5068668;28;20040;-69
2023/06/21 03:46:19;;;;;;;2.17;1.98;;;18.40;99.90;;;;;;5063759;28;20118;-69
2023/06/21 03:48:44;;;;;;;4.03;3.45;;;18.80;99.90;;;;;;5063198;28;20077;-69
2023/06/21 03:51:10;;;;;;;1.17;1.17;;;18.50;99.90;;;;;;5070808;28;20041;-69
2023/06/21 03:53:35;;;;;;;2.55;1.65;;;18.50;99.90;;;;;;5060017;28;20576;-69
2023/06/21 03:56:01;;;;;;;1.85;1.67;;;18.70;99.90;;;;;;5060012;28;20044;-69
2023/06/21 03:58:27;;;;;;;1.63;0.95;;;18.50;99.90;;;;;;5055444;28;20094;-69
2023/06/21 04:00:53;;;;;;;2.03;1.85;;;18.50;99.90;;;;;;5061178;28;20053;-68
2023/06/21 04:03:18;;;;;;;3.83;2.38;;;18.70;99.90;;;;;;5053355;28;20410;-71
2023/06/21 04:05:44;;;;;;;2.40;2.30;;;18.70;99.90;;;;;;5055710;28;20066;-70
2023/06/21 04:08:09;;;;;;;1.75;1.65;;;18.40;99.90;;;;;;5053693;28;20140;-70
2023/06/21 04:10:35;;;;;;;1.30;1.25;;;18.60;99.90;;;;;;5060817;28;20056;-70
2023/06/21 04:13:01;;;;;;;2.67;1.33;;;18.60;99.90;;;;;;5057745;28;20049;-70
2023/06/21 04:15:28;;;;;;;1.50;1.40;;;18.40;99.90;;;;;;5039581;28;20037;-70
2023/06/21 04:17:54;;;;;;;1.33;1.23;;;18.60;99.90;;;;;;5063707;28;20091;-69
2023/06/21 04:20:20;;;;;;;3.72;3.33;;;18.50;99.90;;;;;;5051726;28;20037;-70
2023/06/21 04:22:45;;;;;;;0.80;0.80;;;18.40;99.90;;;;;;5058212;28;20443;-69
2023/06/21 04:25:11;;;;;;;0.63;0.63;;;18.50;99.90;;;;;;5052987;28;20051;-69
2023/06/21 04:27:40;;;;;;;0.60;0.60;;;18.70;99.90;;;;;;5056145;28;20044;-70
2023/06/21 04:30:09;;;;;;;0.73;0.70;;;18.80;99.90;;;;;;5067148;28;20509;-69
2023/06/21 04:32:35;;;;;;;2.03;1.17;;;18.50;99.90;;;;;;5056774;28;20041;-69
2023/06/21 04:35:00;;;;;;;1.55;1.48;;;18.90;99.90;;;;;;5059387;28;20048;-69
2023/06/21 04:37:28;;;;;;;1.52;1.25;;;18.50;99.90;;;;;;5060026;28;20422;-69
2023/06/21 04:39:54;;;;;;;1.52;1.42;;;18.70;99.90;;;;;;5051150;28;20052;-69
2023/06/21 04:42:20;;;;;;;0.57;0.57;;;18.70;99.90;;;;;;5059556;28;20056;-69
2023/06/21 04:44:48;;;;;;;2.05;0.90;;;18.90;99.90;;;;;;5059943;28;20174;-69
2023/06/21 04:47:16;;;;;;;1.10;1.08;;;18.70;99.90;;;;;;5052639;28;20045;-68
2023/06/21 04:49:41;;;;;;;2.97;1.17;;;18.50;99.90;;;;;;5056350;28;20123;-69
2023/06/21 04:52:07;;;;;;;1.10;1.08;;;18.60;99.90;;;;;;5053828;28;20110;-68
2023/06/21 04:54:33;;;;;;;1.17;1.17;;;18.80;99.90;;;;;;5054416;28;20036;-69
2023/06/21 04:56:58;;;;;;;0.73;0.73;;;18.60;99.90;;;;;;5067541;28;20378;-68
2023/06/21 04:59:24;;;;;;;2.60;1.92;;;18.80;99.90;;;;;;5061704;28;20127;-69
2023/06/21 05:01:50;;;;;;;0.88;0.68;;;18.70;99.90;;;;;;5059387;28;20044;-68
2023/06/21 05:04:15;;;;;;;1.48;1.40;;;18.60;99.90;;;;;;5057048;28;20544;-69
2023/06/21 05:06:41;;;;;;;0.93;0.93;;;19.00;99.90;;;;;;5055766;28;20096;-69
2023/06/21 05:09:08;;;;;;;0.73;0.73;;;18.60;99.90;;;;;;5061557;28;20252;-69
2023/06/21 05:11:36;;;;;;;0.87;0.87;;;18.60;99.90;;;;;;5050698;28;20040;-69
2023/06/21 05:14:02;;;;;;;2.53;2.35;;;18.80;99.90;;;;;;5061295;28;20048;-69
2023/06/21 05:16:27;;;;;;;0.95;0.95;;;18.70;99.90;;;;;;5059509;28;20051;-69
2023/06/21 05:18:53;;;;;;;2.92;1.63;;;18.80;99.90;;;;;;5052937;28;20113;-69
2023/06/21 05:21:19;;;;;;;0.70;0.70;;;18.80;99.90;;;;;;5057321;28;20304;-68
2023/06/21 05:23:44;;;;;;;2.03;1.85;;;19.20;99.90;;;;;;5052619;28;20053;-68
2023/06/21 05:26:10;;;;;;;2.97;2.00;;;19.10;99.90;;;;;;5058289;28;20056;-69
2023/06/21 05:28:35;;;;;;;1.02;1.02;;;18.90;99.90;;;;;;5057211;28;20061;-68
2023/06/21 05:31:01;;;;;;;2.35;2.13;;;19.20;99.90;;;;;;5054510;28;20775;-69
2023/06/21 05:33:27;;;;;;;4.03;3.63;;;18.80;99.90;;;;;;5050524;28;20098;-69
2023/06/21 05:35:52;;;;;;;1.65;1.55;;;18.90;99.90;;;;;;5041223;28;20174;-69
2023/06/21 05:38:18;;;;;;;4.28;1.83;;;19.20;99.90;;;;;;5041879;28;20052;-69
2023/06/21 05:40:44;;;;;;;3.50;2.17;;;19.10;99.90;;;;;;5041153;28;20474;-69
2023/06/21 05:43:09;;;;;;;1.88;1.70;;;19.10;99.90;;;;;;5040176;28;20060;-69
2023/06/21 05:45:38;;;;;;;4.45;4.00;;;19.20;99.90;;;;;;5024081;28;20453;-69
2023/06/21 05:48:04;;;;;;;2.95;2.75;;;19.30;99.90;;;;;;5041769;28;20525;-69
2023/06/21 05:50:30;;;;;;;2.58;2.35;;;19.10;99.90;;;;;;5040771;28;20147;-69
2023/06/21 05:52:57;;;;;;;1.85;1.75;;;19.20;99.90;;;;;;5053585;28;20052;-68
2023/06/21 05:55:23;;;;;;;1.13;1.10;;;19.00;99.90;;;;;;5055029;28;20048;-68
2023/06/21 05:57:49;;;;;;;3.35;2.78;;;19.30;99.90;;;;;;5056677;28;20051;-68
2023/06/21 06:00:17;;;;;;;2.38;2.17;;;19.50;99.90;;;;;;5054503;28;20494;-69
2023/06/21 06:02:44;;;;;;;3.17;2.80;;;19.40;99.90;;;;;;5054713;28;20420;-69
2023/06/21 06:05:10;;;;;;;2.58;2.45;;;19.60;99.90;;;;;;5054991;28;20184;-69
2023/06/21 06:07:36;;;;;;;7.22;4.13;;;19.70;99.90;;;;;;5037853;28;20056;-69
2023/06/21 06:10:02;;;;;;;2.45;2.25;;;19.40;99.90;;;;;;5053159;28;20052;-70
2023/06/21 06:12:27;;;;;;;3.53;3.03;;;19.40;99.90;;;;;;5055209;28;20044;-69
2023/06/21 06:14:53;;;;;;;2.08;1.88;;;19.80;99.90;;;;;;5054974;28;20078;-69
2023/06/21 06:17:22;;;;;;;1.73;1.45;;;19.60;99.90;;;;;;5055793;28;20060;-69
2023/06/21 06:19:47;;;;;;;3.03;2.20;;;19.70;99.90;;;;;;5038201;28;20415;-69
2023/06/21 06:22:13;;;;;;;3.20;2.88;;;20.00;99.90;;;;;;5053821;28;20048;-70
2023/06/21 06:24:39;;;;;;;2.22;2.13;;;19.80;99.90;;;;;;5056147;28;20041;-70
2023/06/21 06:27:05;;;;;;;1.17;1.10;;;20.10;99.90;;;;;;5055446;28;20135;-69
2023/06/21 06:29:30;;;;;;;2.42;1.30;;;19.80;99.90;;;;;;5049791;28;20045;-69
2023/06/21 06:31:56;;;;;;;2.55;2.00;;;20.30;99.90;;;;;;5048191;28;20048;-69
2023/06/21 06:34:22;;;;;;;1.05;0.70;;;20.10;99.90;;;;;;5053205;28;20040;-69
2023/06/21 06:36:48;;;;;;;1.85;1.55;;;20.30;99.90;;;;;;5051843;28;20511;-70
2023/06/21 06:39:14;;;;;;;2.80;1.65;;;20.50;99.90;;;;;;5052820;28;20032;-69
2023/06/21 06:41:40;;;;;;;1.35;1.25;;;20.40;99.90;;;;;;5052420;28;20056;-69
2023/06/21 06:44:05;;;;;;;1.88;1.75;;;20.50;99.90;;;;;;5041077;28;20045;-70
2023/06/21 06:46:31;;;;;;;1.02;1.02;;;21.00;99.90;;;;;;5042859;28;20048;-70
2023/06/21 06:48:57;;;;;;;2.10;1.98;;;20.90;99.90;;;;;;5040186;28;20045;-70
2023/06/21 06:51:23;;;;;;;1.70;1.35;;;21.20;99.90;;;;;;5043855;28;20053;-70
2023/06/21 06:53:49;;;;;;;0.85;0.85;;;21.00;99.90;;;;;;5043523;28;20071;-70
2023/06/21 06:56:15;;;;;;;1.23;1.20;;;21.50;99.90;;;;;;5043094;28;20053;-70
2023/06/21 06:58:40;;;;;;;2.47;1.42;;;21.30;99.90;;;;;;5045095;28;20090;-69
2023/06/21 07:01:06;;;;;;;2.83;1.33;;;21.70;99.90;;;;;;5042968;28;20494;-69
2023/06/21 07:03:32;;;;;;;1.52;1.42;;;21.70;99.90;;;;;;5056072;28;20112;-69
2023/06/21 07:05:59;;;;;;;1.98;1.88;;;21.80;99.90;;;;;;5041994;28;20453;-69
2023/06/21 07:08:25;;;;;;;1.42;1.33;;;21.80;99.90;;;;;;5043545;28;20060;-70
2023/06/21 07:10:51;;;;;;;1.63;1.52;;;21.70;99.90;;;;;;5043099;28;20539;-70
2023/06/21 07:13:17;;;;;;;1.60;1.48;;;21.90;99.90;;;;;;5046517;28;20569;-71
2023/06/21 07:15:43;;;;;;;2.45;1.20;;;22.40;99.90;;;;;;5042539;28;20126;-70
2023/06/21 07:18:10;;;;;;;2.00;1.27;;;22.10;99.90;;;;;;5042846;28;20049;-70
2023/06/21 07:20:35;;;;;;;2.03;1.50;;;22.20;99.90;;;;;;5042885;28;20114;-70
2023/06/21 07:23:01;;;;;;;0.73;0.73;;;22.20;99.90;;;;;;5042105;28;20052;-70
2023/06/21 07:25:27;;;;;;;1.00;0.65;;;22.40;99.90;;;;;;5044323;28;20045;-70
2023/06/21 07:27:53;;;;;;;1.20;1.02;;;22.60;99.90;;;;;;5043456;28;20590;-70
2023/06/21 07:30:20;;;;;;;1.60;0.93;;;22.90;99.90;;;;;;5044062;28;20102;-70
2023/06/21 07:32:47;;;;;;;1.33;1.33;;;23.40;99.90;;;;;;5042822;28;20056;-70
2023/06/21 07:35:14;;;;;;;1.17;1.17;;;23.20;99.90;;;;;;5043948;28;20099;-70
2023/06/21 07:37:41;;;;;;;1.20;1.15;;;23.50;99.90;;;;;;5044024;28;20155;-70
2023/06/21 07:40:08;;;;;;;0.85;0.80;;;23.80;99.90;;;;;;5043802;28;20401;-70
2023/06/21 07:42:34;;;;;;;0.55;0.55;;;23.90;99.90;;;;;;5043551;28;20469;-70
2023/06/21 07:44:59;;;;;;;2.47;0.70;;;24.00;99.90;;;;;;5044501;28;20127;-70
2023/06/21 07:47:25;;;;;;;1.13;1.02;;;24.00;99.90;;;;;;5043375;28;20080;-70
2023/06/21 07:49:51;;;;;;;0.30;0.30;;;24.50;99.90;;;;;;5041781;28;20044;-70
2023/06/21 07:52:17;;;;;;;2.33;1.55;;;24.50;99.90;;;;;;5042871;28;20037;-71
2023/06/21 07:54:47;;;;;;;0.90;0.90;;;24.60;99.90;;;;;;5044323;28;20045;-70
2023/06/21 07:57:15;;;;;;;1.15;1.10;;;24.70;99.90;;;;;;5043880;28;20057;-70
2023/06/21 07:59:40;;;;;;;0.90;0.90;;;25.10;99.90;;;;;;5042351;28;20048;-70
2023/06/21 08:02:06;;;;;;;0.55;0.55;;;25.10;99.90;;;;;;5041115;28;20106;-70
2023/06/21 08:04:31;;;;;;;0.57;0.57;;;25.10;99.90;;;;;;5044125;28;20049;-69
2023/06/21 08:06:57;;;;;;;0.57;0.57;;;25.20;99.90;;;;;;5043597;28;20474;-70
2023/06/21 08:09:23;;;;;;;0.40;0.40;;;25.00;99.90;;;;;;5041916;28;20072;-70
2023/06/21 08:11:48;;;;;;;2.40;1.00;;;25.20;99.90;;;;;;5040677;28;20052;-70
2023/06/21 08:14:14;;;;;;;0.50;0.50;;;25.10;99.90;;;;;;5042997;28;20067;-70
2023/06/21 08:16:39;;;;;;;1.98;1.17;;;25.10;99.90;;;;;;5042720;28;20111;-70
2023/06/21 08:19:05;;;;;;;4.47;1.35;;;25.20;99.90;;;;;;5043733;28;20048;-70
2023/06/21 08:21:31;;;;;;;0.70;0.50;;;25.40;99.90;;;;;;5042569;28;20394;-70
2023/06/21 08:23:56;;;;;;;0.43;0.43;;;25.20;99.90;;;;;;5038770;28;20049;-70
2023/06/21 08:26:22;;;;;;;0.68;0.68;;;25.10;99.90;;;;;;5042476;28;20037;-70
2023/06/21 08:28:48;;;;;;;0.30;0.30;;;25.20;99.90;;;;;;5040704;28;20513;-70
2023/06/21 08:31:14;;;;;;;0.77;0.77;;;25.40;99.90;;;;;;5043443;28;20562;-70
2023/06/21 08:33:39;;;;;;;1.45;0.73;;;25.90;99.90;;;;;;5042658;28;20045;-69
2023/06/21 08:36:08;;;;;;;0.63;0.63;;;25.90;99.90;;;;;;5042307;28;20490;-70
2023/06/21 08:38:34;;;;;;;1.45;0.73;;;26.10;99.90;;;;;;5043250;28;20559;-70
2023/06/21 08:41:03;;;;;;;0.50;0.50;;;26.10;99.90;;;;;;5042650;28;20053;-70
2023/06/21 08:43:29;;;;;;;0.63;0.63;;;26.00;99.90;;;;;;5042234;28;20079;-70
2023/06/21 08:45:56;;;;;;;0.70;0.70;;;26.30;99.90;;;;;;5042810;28;20607;-70
2023/06/21 08:48:22;;;;;;;0.43;0.43;;;26.40;99.90;;;;;;5042068;28;20048;-70
2023/06/21 08:50:49;;;;;;;0.55;0.55;;;26.70;99.90;;;;;;5042182;28;20395;-70
2023/06/21 08:53:25;;;;;;;1.60;1.50;;;26.80;99.90;;;;;;5042846;28;20044;-69
2023/06/21 08:55:51;;;;;;;0.52;0.52;;;26.90;99.90;;;;;;5042199;28;20122;-70
2023/06/21 08:58:21;;;;;;;0.47;0.47;;;27.10;99.90;;;;;;5042709;28;20040;-68
2023/06/21 09:00:53;;;;;;;0.50;0.50;;;26.90;99.90;;;;;;5040306;28;20341;-70
2023/06/21 09:03:29;;;;;;;0.50;0.50;;;26.90;99.90;;;;;;5041232;28;20135;-71
2023/06/21 09:06:00;;;;;;;0.70;0.70;;;27.20;99.90;;;;;;5040171;28;20164;-71
2023/06/21 09:08:26;;;;;;;0.40;0.40;;;27.10;99.90;;;;;;5040513;28;20131;-68
2023/06/21 09:10:52;;;;;;;0.40;0.40;;;27.10;99.90;;;;;;5040314;28;20101;-68
2023/06/21 09:13:19;;;;;;;0.50;0.50;;;26.90;99.90;;;;;;5038868;28;20053;-68
2023/06/21 09:15:47;;;;;;;0.60;0.57;;;27.30;99.90;;;;;;5039909;28;20041;-68
2023/06/21 09:18:14;;;;;;;0.95;0.60;;;27.20;99.90;;;;;;5041514;28;20048;-68
2023/06/21 09:20:41;;;;;;;0.77;0.77;;;27.50;99.90;;;;;;5041680;28;20401;-68
2023/06/21 09:23:07;;;;;;;1.20;1.10;;;27.60;99.90;;;;;;5042052;28;20951;-67
2023/06/21 09:25:33;;;;;;;0.90;0.90;;;27.90;99.90;;;;;;5041182;28;20041;-68
2023/06/21 09:27:58;;;;;;;1.10;1.10;;;27.90;99.90;;;;;;5039497;28;20055;-68
2023/06/21 09:30:24;;;;;;;0.50;0.50;;;27.90;99.90;;;;;;5041487;28;20044;-71
2023/06/21 09:32:50;;;;;;;1.00;1.00;;;27.80;99.90;;;;;;5039770;28;20041;-68
2023/06/21 09:35:16;;;;;;;0.43;0.43;;;27.70;99.90;;;;;;5041186;28;20045;-68
2023/06/21 09:37:42;;;;;;;0.40;0.40;;;27.90;99.90;;;;;;5042045;28;20082;-69
2023/06/21 09:40:08;;;;;;;0.50;0.50;;;28.00;99.90;;;;;;5040801;28;20045;-67
2023/06/21 09:42:39;;;;;;;0.52;0.50;;;27.90;99.90;;;;;;5041067;28;20067;-67
2023/06/21 09:45:09;;;;;;;0.50;0.50;;;27.90;99.90;;;;;;5041329;28;20056;-67
2023/06/21 09:47:35;;;;;;;0.50;0.50;;;27.90;99.90;;;;;;5041407;28;20056;-67
2023/06/21 09:50:08;;;;;;;0.60;0.60;;;28.00;99.90;;;;;;5040371;28;20037;-67
2023/06/21 09:52:34;;;;;;;0.30;0.30;;;28.10;99.90;;;;;;5041628;28;20063;-68
2023/06/21 09:55:00;;;;;;;1.98;1.00;;;28.20;99.90;;;;;;5040431;28;20045;-67
2023/06/21 09:57:32;;;;;;;0.32;0.32;;;28.30;99.90;;;;;;5040701;28;20055;-68
2023/06/21 10:00:05;;;;;;;0.50;0.50;;;28.50;99.90;;;;;;5040945;28;20053;-67
2023/06/21 10:02:40;;;;;;;0.40;0.40;;;28.30;99.90;;;;;;5041461;28;20303;-67
2023/06/21 10:05:26;;;;;;;0.85;0.85;;;28.40;99.90;;;;;;5040873;28;20048;-68
2023/06/21 10:07:52;;;;;;;0.30;0.30;;;28.50;99.90;;;;;;5039410;28;20044;-67
2023/06/21 10:10:18;;;;;;;0.75;0.75;;;28.40;99.90;;;;;;5040685;28;20083;-67
2023/06/21 10:12:51;;;;;;;1.60;1.47;;;28.70;99.90;;;;;;5039534;28;20049;-67
2023/06/21 10:15:18;;;;;;;0.40;0.40;;;28.60;99.90;;;;;;5041163;28;20078;-69
2023/06/21 10:17:45;;;;;;;0.55;0.55;;;28.70;99.90;;;;;;5039479;28;20135;-68
2023/06/21 10:20:15;;;;;;;0.60;0.60;;;28.80;99.90;;;;;;5039612;28;20055;-70
2023/06/21 10:22:44;;;;;;;0.60;0.60;;;28.80;99.90;;;;;;5041133;28;20056;-68
2023/06/21 10:25:10;;;;;;;0.75;0.75;;;29.00;99.90;;;;;;5044040;28;20053;-68
2023/06/21 10:27:39;;;;;;;0.30;0.30;;;29.00;99.90;;;;;;5044346;28;20052;-70
2023/06/21 10:30:06;;;;;;;0.68;0.68;;;28.90;99.90;;;;;;5042886;28;20049;-68
2023/06/21 10:32:34;;;;;;;1.33;1.25;;;28.70;99.90;;;;;;5044966;28;20049;-67
2023/06/21 10:35:13;;;;;;;0.52;0.52;;;28.90;99.90;;;;;;5044734;28;20091;-68
2023/06/21 10:37:50;;;;;;;0.40;0.40;;;28.90;99.90;;;;;;5045759;28;20048;-68
2023/06/21 10:40:17;;;;;;;0.57;0.57;;;29.00;99.90;;;;;;5060050;28;20049;-68
2023/06/21 10:42:44;;;;;;;0.73;0.57;;;29.20;99.90;;;;;;5058839;28;20048;-68
2023/06/21 10:45:10;;;;;;;1.17;0.35;;;29.40;99.90;;;;;;5060512;28;20606;-69
2023/06/21 10:47:40;;;;;;;0.55;0.55;;;29.50;99.90;;;;;;5060491;28;20131;-68
2023/06/21 10:50:07;;;;;;;0.40;0.40;;;29.70;99.90;;;;;;5058104;28;20053;-68
2023/06/21 10:52:33;;;;;;;0.60;0.60;;;29.80;99.90;;;;;;5060429;28;20053;-68
2023/06/21 10:55:01;;;;;;;0.95;0.82;;;30.10;99.90;;;;;;5067353;28;20516;-69
2023/06/21 10:57:31;;;;;;;0.70;0.70;;;29.90;99.90;;;;;;5065133;28;20497;-68
2023/06/21 11:00:05;;;;;;;0.40;0.40;;;29.90;99.90;;;;;;5063805;28;20127;-69
2023/06/21 11:02:32;;;;;;;0.50;0.50;;;30.00;99.90;;;;;;5062064;28;20045;-68
2023/06/21 11:05:15;;;;;;;0.40;0.40;;;30.10;99.90;;;;;;5057074;28;20448;-68
2023/06/21 11:07:55;;;;;;;0.60;0.60;;;30.60;99.90;;;;;;5059228;28;20071;-69
2023/06/21 11:10:39;;;;;;;0.60;0.60;;;30.70;99.90;;;;;;5057635;28;20094;-68
2023/06/21 11:13:05;;;;;;;0.40;0.40;;;30.60;98.30;;;;;;5043814;28;20048;-68
2023/06/21 11:15:32;;;;;;;0.63;0.63;;;30.50;99.00;;;;;;5057604;28;20398;-68
2023/06/21 11:18:02;;;;;;;0.70;0.70;;;30.70;99.90;;;;;;5059371;28;20040;-69
2023/06/21 11:20:31;;;;;;;0.45;0.45;;;30.70;97.80;;;;;;5058308;28;20437;-69
2023/06/21 11:23:06;;;;;;;0.55;0.55;;;30.80;97.30;;;;;;5059407;28;20041;-68
2023/06/21 11:25:35;;;;;;;0.75;0.75;;;30.90;97.60;;;;;;5055002;28;20055;-69
2023/06/21 11:28:20;;;;;;;0.80;0.80;;;31.00;98.60;;;;;;5058046;28;20454;-68
2023/06/21 11:31:01;;;;;;;0.50;0.50;;;31.10;97.90;;;;;;5052204;28;20048;-69
2023/06/21 11:33:32;;;;;;;1.88;1.10;;;31.00;95.40;;;;;;5052936;28;20099;-69
2023/06/21 11:36:06;;;;;;;0.47;0.47;;;31.10;97.40;;;;;;5056969;28;20725;-68
2023/06/21 11:38:33;;;;;;;0.63;0.63;;;30.90;95.80;;;;;;5057090;28;20090;-69
2023/06/21 11:41:00;;;;;;;0.40;0.40;;;30.70;95.70;;;;;;5057066;28;20378;-69
2023/06/21 11:43:26;;;;;;;1.17;1.05;;;30.90;96.20;;;;;;5056337;28;20044;-68
2023/06/21 11:46:03;;;;;;;0.40;0.40;;;31.10;96.20;;;;;;5036334;28;20087;-69
2023/06/21 11:48:29;;;;;;;0.70;0.70;;;31.30;94.90;;;;;;5057988;28;20477;-69
2023/06/21 11:51:07;;;;;;;0.30;0.30;;;31.50;95.80;;;;;;5058077;28;20073;-68
2023/06/21 11:53:41;;;;;;;0.57;0.57;;;31.80;93.30;;;;;;5052473;28;20044;-68
2023/06/21 11:56:09;;;;;;;0.45;0.45;;;31.90;93.80;;;;;;5053482;28;20053;-68
2023/06/21 11:58:35;;;;;;;0.65;0.65;;;31.80;93.10;;;;;;5057244;28;20036;-68
2023/06/21 12:01:01;;;;;;;0.75;0.75;;;32.10;94.50;;;;;;5059010;28;20055;-69
2023/06/21 12:03:27;;;;;;;0.43;0.43;;;32.10;92.40;;;;;;5059174;28;20075;-69
2023/06/21 12:06:01;;;;;;;0.75;0.75;;;32.20;92.80;;;;;;5061165;28;20037;-68
2023/06/21 12:08:29;;;;;;;0.40;0.40;;;32.20;92.30;;;;;;5050788;28;20060;-69
2023/06/21 12:11:06;;;;;;;0.50;0.50;;;32.10;93.10;;;;;;5038735;28;20040;-69
2023/06/21 12:13:33;;;;;;;1.05;0.60;;;32.10;92.30;;;;;;5054682;28;20044;-69
2023/06/21 12:16:02;;;;;;;;;;;32.30;92.90;;;;;;5049434;28;20478;-69
2023/06/21 12:18:30;;;;;;;0.80;0.80;;;32.40;92.90;;;;;;5057604;28;19920;-69
2023/06/21 12:20:58;;;;;;;1.45;1.45;;;32.50;93.00;;;;;;5049068;28;20053;-69
2023/06/21 12:23:24;;;;;;;0.90;0.90;;;32.60;92.90;;;;;;5054122;28;20045;-69
2023/06/21 12:25:55;;;;;;;0.68;0.68;;;32.50;92.20;;;;;;5056172;28;20900;-69
2023/06/21 12:28:22;;;;;;;0.60;0.60;;;32.40;90.70;;;;;;5059582;28;20045;-68
2023/06/21 12:31:00;;;;;;;0.60;0.60;;;32.60;92.10;;;;;;5057321;28;20041;-69
2023/06/21 12:33:44;;;;;;;0.70;0.70;;;32.40;91.20;;;;;;5066195;28;20059;-69
2023/06/21 12:36:31;;;;;;;0.77;0.77;;;32.50;91.90;;;;;;5062992;28;20048;-68
2023/06/21 12:38:59;;;;;;;0.50;0.50;;;32.40;92.10;;;;;;5050900;28;20558;-68
2023/06/21 12:41:29;;;;;;;0.65;0.65;;;32.10;90.00;;;;;;5058518;28;20044;-69
2023/06/21 12:43:59;;;;;;;0.82;0.82;;;31.80;91.70;;;;;;5056973;28;20044;-70
2023/06/21 12:46:25;;;;;;;0.50;0.50;;;31.50;91.80;;;;;;5062891;28;20484;-69
2023/06/21 12:48:53;;;;;;;0.50;0.50;;;31.40;92.10;;;;;;5058426;28;20040;-68
2023/06/21 12:51:23;;;;;;;0.50;0.50;;;31.40;92.70;;;;;;5059475;28;20062;-70